createdAt,value
2018-09-04T00:00:25.415Z,19.67
2018-09-04T00:04:29.047Z,20.07
2018-09-04T00:08:32.792Z,21.03
2018-09-04T00:12:36.820Z,20.87
2018-09-04T00:16:40.509Z,19.33
2018-09-04T00:20:44.181Z,20.37
2018-09-04T00:24:47.823Z,20.77
2018-09-04T00:28:51.513Z,20.67
2018-09-04T00:32:55.184Z,20.53
2018-09-04T00:36:58.855Z,20.27
2018-09-04T00:41:02.511Z,22.27
2018-09-04T00:45:06.328Z,20.33
2018-09-04T00:49:10.028Z,20.10
2018-09-04T00:53:13.716Z,19.30
2018-09-04T00:57:17.387Z,19.43
2018-09-04T01:01:21.132Z,18.47
2018-09-04T01:05:24.803Z,18.53
2018-09-04T01:09:28.492Z,20.33
2018-09-04T01:13:32.172Z,18.17
2018-09-04T01:17:35.854Z,17.33
2018-09-04T01:21:39.511Z,16.10
2018-09-04T01:25:43.191Z,14.13
2018-09-04T01:29:46.929Z,15.57
2018-09-04T01:33:50.602Z,15.10
2018-09-04T01:37:54.260Z,14.60
2018-09-04T01:41:57.931Z,14.10
2018-09-04T01:46:01.560Z,15.03
2018-09-04T01:50:05.525Z,15.23
2018-09-04T01:54:09.192Z,14.07
2018-09-04T01:58:12.927Z,15.60
2018-09-04T02:02:16.587Z,14.73
2018-09-04T02:06:20.482Z,14.63
2018-09-04T02:10:24.141Z,14.90
2018-09-04T02:14:27.907Z,12.33
2018-09-04T02:18:31.564Z,12.13
2018-09-04T02:22:35.288Z,13.67
2018-09-04T02:26:38.948Z,13.17
2018-09-04T02:30:42.603Z,12.80
2018-09-04T02:34:46.268Z,12.53
2018-09-04T02:38:49.925Z,14.20
2018-09-04T02:42:53.592Z,14.33
2018-09-04T02:46:57.344Z,13.53
2018-09-04T02:51:01.038Z,13.33
2018-09-04T02:55:04.752Z,13.53
2018-09-04T02:59:15.024Z,13.27
2018-09-04T03:03:18.685Z,12.80
2018-09-04T03:07:22.337Z,12.90
2018-09-04T03:11:25.975Z,12.70
2018-09-04T03:15:29.644Z,13.30
2018-09-04T03:19:33.302Z,12.83
2018-09-04T03:23:37.065Z,12.83
2018-09-04T03:27:40.741Z,12.20
2018-09-04T03:31:44.357Z,12.10
2018-09-04T03:35:48.036Z,13.17
2018-09-04T03:39:51.787Z,12.37
2018-09-04T03:43:55.433Z,11.83
2018-09-04T03:47:59.083Z,11.17
2018-09-04T03:52:02.716Z,11.37
2018-09-04T03:56:06.403Z,11.47
2018-09-04T04:00:10.395Z,10.40
2018-09-04T04:04:14.246Z,10.73
2018-09-04T04:08:17.904Z,9.93
2018-09-04T04:12:21.544Z,11.47
2018-09-04T04:16:25.197Z,12.23
2018-09-04T04:20:28.883Z,10.17
2018-09-04T04:24:32.540Z,10.73
2018-09-04T04:28:36.260Z,10.60
2018-09-04T04:32:39.949Z,10.40
2018-09-04T04:36:43.609Z,11.10
2018-09-04T04:40:47.275Z,11.10
2018-09-04T04:44:50.947Z,11.13
2018-09-04T04:48:54.617Z,11.33
2018-09-04T04:52:58.260Z,11.00
2018-09-04T04:57:01.927Z,10.80
2018-09-04T05:01:06.064Z,10.27
2018-09-04T05:05:09.758Z,9.93
2018-09-04T05:09:13.428Z,10.07
2018-09-04T05:13:17.112Z,9.87
2018-09-04T05:17:21.399Z,9.60
2018-09-04T05:21:25.060Z,9.23
2018-09-04T05:25:28.719Z,9.07
2018-09-04T05:29:32.470Z,9.30
2018-09-04T05:33:39.220Z,8.23
2018-09-04T05:37:43.716Z,8.50
2018-09-04T05:41:47.378Z,8.27
2018-09-04T05:45:51.083Z,7.60
2018-09-04T05:49:54.794Z,7.47
2018-09-04T05:53:58.629Z,8.00
2018-09-04T05:58:02.723Z,8.33
2018-09-04T06:02:06.462Z,8.03
2018-09-04T06:06:10.119Z,8.00
2018-09-04T06:20:57.262Z,8.00
2018-09-04T06:25:00.992Z,7.43
2018-09-04T06:29:04.721Z,8.50
2018-09-04T06:33:08.395Z,7.80
2018-09-04T06:37:12.103Z,7.73
2018-09-04T06:41:15.760Z,7.90
2018-09-04T06:45:19.437Z,8.87
2018-09-04T06:49:23.067Z,8.63
2018-09-04T06:53:26.736Z,8.00
2018-09-04T06:57:30.407Z,7.93
2018-09-04T07:01:34.231Z,8.27
2018-09-04T07:05:37.881Z,8.10
2018-09-04T07:09:41.514Z,8.47
2018-09-04T07:13:45.183Z,8.60
2018-09-04T07:17:48.839Z,7.87
2018-09-04T07:21:52.503Z,7.93
2018-09-04T07:25:56.160Z,8.00
2018-09-04T07:29:59.843Z,8.00
2018-09-04T07:34:03.499Z,8.10
2018-09-04T07:38:07.333Z,9.37
2018-09-04T07:42:11.048Z,9.77
2018-09-04T07:46:14.721Z,8.73
2018-09-04T07:50:18.358Z,8.60
2018-09-04T07:54:22.041Z,8.17
2018-09-04T07:58:25.695Z,8.43
2018-09-04T08:02:29.500Z,9.23
2018-09-04T08:06:33.201Z,8.70
2018-09-04T08:10:36.857Z,8.33
2018-09-04T08:14:40.592Z,8.63
2018-09-04T08:18:44.252Z,8.00
2018-09-04T08:22:47.940Z,9.30
2018-09-04T08:26:51.704Z,8.67
2018-09-04T08:30:55.340Z,9.47
2018-09-04T08:34:59.009Z,10.33
2018-09-04T08:39:02.735Z,9.33
2018-09-04T08:43:06.887Z,9.47
2018-09-04T08:47:10.638Z,11.07
2018-09-04T08:51:14.277Z,10.23
2018-09-04T08:55:17.954Z,10.77
2018-09-04T08:59:21.635Z,10.57
2018-09-04T09:03:25.353Z,10.33
2018-09-04T09:07:29.005Z,9.70
2018-09-04T09:11:32.659Z,9.73
2018-09-04T09:15:36.281Z,9.37
2018-09-04T09:19:39.982Z,9.83
2018-09-04T09:23:43.665Z,10.53
2018-09-04T09:27:47.413Z,10.80
2018-09-04T09:31:51.166Z,9.27
2018-09-04T09:35:54.845Z,9.47
2018-09-04T09:39:58.545Z,8.97
2018-09-04T09:44:02.216Z,9.90
2018-09-04T09:48:06.077Z,9.07
2018-09-04T09:52:09.790Z,8.57
2018-09-04T09:56:13.510Z,7.87
2018-09-04T10:00:22.461Z,8.73
2018-09-04T10:04:26.864Z,7.43
2018-09-04T10:08:30.608Z,7.80
2018-09-04T10:12:34.228Z,8.07
2018-09-04T10:16:37.847Z,8.00
2018-09-04T10:20:41.516Z,7.53
2018-09-04T10:24:45.181Z,8.40
2018-09-04T10:28:48.891Z,6.97
2018-09-04T10:32:53.801Z,7.00
2018-09-04T10:36:57.447Z,6.70
2018-09-04T10:41:02.343Z,7.00
2018-09-04T10:45:09.400Z,7.53
2018-09-04T10:49:13.061Z,6.33
2018-09-04T10:53:16.704Z,6.97
2018-09-04T10:57:20.438Z,7.77
2018-09-04T11:01:24.160Z,7.53
2018-09-04T11:05:27.893Z,6.77
2018-09-04T11:09:31.770Z,7.00
2018-09-04T11:13:35.407Z,6.70
2018-09-04T11:17:39.067Z,7.47
2018-09-04T11:21:42.745Z,7.50
2018-09-04T11:25:46.408Z,6.63
2018-09-04T11:29:50.125Z,7.23
2018-09-04T11:33:53.851Z,6.60
2018-09-04T11:37:57.524Z,7.77
2018-09-04T11:42:07.719Z,7.20
2018-09-04T11:46:11.392Z,8.17
2018-09-04T11:50:15.068Z,7.70
2018-09-04T11:54:18.862Z,7.37
2018-09-04T11:58:22.526Z,7.70
2018-09-04T12:02:36.318Z,7.67
2018-09-04T12:06:40.086Z,7.67
2018-09-04T12:10:43.710Z,8.10
2018-09-04T12:14:47.388Z,8.13
2018-09-04T12:18:51.190Z,7.53
2018-09-04T12:22:54.917Z,7.73
2018-09-04T12:26:58.636Z,7.13
2018-09-04T12:31:02.709Z,7.50
2018-09-04T12:35:06.506Z,7.27
2018-09-04T12:39:10.210Z,7.93
2018-09-04T12:43:13.875Z,7.80
2018-09-04T12:47:17.583Z,8.30
2018-09-04T12:51:21.353Z,7.50
2018-09-04T12:55:25.047Z,8.00
2018-09-04T12:59:28.737Z,7.77
2018-09-04T13:03:32.388Z,7.30
2018-09-04T13:07:36.088Z,7.23
2018-09-04T13:11:39.865Z,8.07
2018-09-04T13:15:46.559Z,7.80
2018-09-04T13:19:50.696Z,7.60
2018-09-04T13:23:54.348Z,8.10
2018-09-04T13:27:58.077Z,7.53
2018-09-04T13:32:01.832Z,7.97
2018-09-04T13:36:05.530Z,7.30
2018-09-04T13:40:09.303Z,6.90
2018-09-04T13:44:12.960Z,7.23
2018-09-04T13:48:16.705Z,8.47
2018-09-04T13:52:20.403Z,7.67
2018-09-04T13:56:24.095Z,7.23
2018-09-04T14:00:27.868Z,7.47
2018-09-04T14:04:31.583Z,7.90
2018-09-04T14:08:36.019Z,6.93
2018-09-04T14:12:40.029Z,7.50
2018-09-04T14:16:43.849Z,7.40
2018-09-04T14:20:47.947Z,8.40
2018-09-04T14:24:51.684Z,7.53
2018-09-04T14:29:07.510Z,7.77
2018-09-04T14:32:59.437Z,7.20
2018-09-04T14:37:03.854Z,7.70
2018-09-04T14:41:07.656Z,6.93
2018-09-04T14:45:11.611Z,6.93
2018-09-04T14:49:15.582Z,6.73
2018-09-04T14:53:19.508Z,7.13
2018-09-04T14:57:23.516Z,7.03
2018-09-04T15:01:27.320Z,7.07
2018-09-04T15:05:30.985Z,7.47
2018-09-04T15:09:34.738Z,7.63
2018-09-04T15:13:38.435Z,8.13
2018-09-04T15:17:42.159Z,6.80
2018-09-04T15:21:45.877Z,7.03
2018-09-04T15:25:49.708Z,6.87
2018-09-04T15:29:53.672Z,6.70
2018-09-04T15:33:57.336Z,6.70
2018-09-04T15:38:01.028Z,7.30
2018-09-04T15:42:04.776Z,8.27
2018-09-04T15:46:08.492Z,7.53
2018-09-04T15:50:12.218Z,7.30
2018-09-04T15:54:15.861Z,7.80
2018-09-04T15:58:26.191Z,8.07
2018-09-04T16:02:29.923Z,8.00
2018-09-04T16:06:33.572Z,7.90
2018-09-04T16:10:37.250Z,7.10
2018-09-04T16:14:40.928Z,7.90
2018-09-04T16:18:44.629Z,7.30
2018-09-04T16:22:48.303Z,6.87
2018-09-04T16:26:52.025Z,7.23
2018-09-04T16:30:55.738Z,7.63
2018-09-04T16:34:59.583Z,7.07
2018-09-04T16:39:04.614Z,7.20
2018-09-04T16:43:08.279Z,7.23
2018-09-04T16:47:12.094Z,7.80
2018-09-04T16:51:16.951Z,6.70
2018-09-04T16:55:21.725Z,7.57
2018-09-04T16:59:25.520Z,6.80
2018-09-04T17:03:29.527Z,6.17
2018-09-04T17:07:33.181Z,7.60
2018-09-04T17:11:37.233Z,7.50
2018-09-04T17:15:40.970Z,7.37
2018-09-04T17:19:44.624Z,7.37
2018-09-04T17:23:48.304Z,6.57
2018-09-04T17:27:51.967Z,7.00
2018-09-04T17:31:55.672Z,6.60
2018-09-04T17:35:59.331Z,6.97
2018-09-04T17:40:03.153Z,6.80
2018-09-04T17:44:07.255Z,6.97
2018-09-04T17:48:10.976Z,6.53
2018-09-04T17:52:14.593Z,5.90
2018-09-04T17:56:18.265Z,6.57
2018-09-04T18:00:21.936Z,6.63
2018-09-04T18:04:25.592Z,6.63
2018-09-04T18:08:29.240Z,6.87
2018-09-04T18:12:32.939Z,6.87
2018-09-04T18:16:36.592Z,6.33
2018-09-04T18:20:40.248Z,6.47
2018-09-04T18:24:43.964Z,5.73
2018-09-04T18:28:47.646Z,6.13
2018-09-04T18:32:51.272Z,6.10
2018-09-04T18:36:54.944Z,6.10
2018-09-04T18:40:58.590Z,6.40
2018-09-04T18:45:02.264Z,6.77
2018-09-04T18:49:06.054Z,7.27
2018-09-04T18:53:09.673Z,6.13
2018-09-04T18:57:13.808Z,6.47
2018-09-04T19:01:17.517Z,6.17
2018-09-04T19:05:21.176Z,7.07
2018-09-04T19:09:25.041Z,5.87
2018-09-04T19:13:28.770Z,6.40
2018-09-04T19:17:32.432Z,6.10
2018-09-04T19:21:36.084Z,6.53
2018-09-04T19:25:39.732Z,6.07
2018-09-04T19:29:43.440Z,5.90
2018-09-04T19:33:47.047Z,6.03
2018-09-04T19:37:50.713Z,6.10
2018-09-04T19:41:54.353Z,6.70
2018-09-04T19:45:58.001Z,6.77
2018-09-04T19:50:01.924Z,6.40
2018-09-04T19:54:05.609Z,6.30
2018-09-04T19:58:09.271Z,5.73
2018-09-04T20:02:13.096Z,6.10
2018-09-04T20:06:16.812Z,6.10
2018-09-04T20:10:20.573Z,6.57
2018-09-04T20:14:24.212Z,6.53
2018-09-04T20:18:27.853Z,6.20
2018-09-04T20:22:31.525Z,7.00
2018-09-04T20:26:35.178Z,6.53
2018-09-04T20:30:38.885Z,6.73
2018-09-04T20:34:42.498Z,6.17
2018-09-04T20:38:46.263Z,6.60
2018-09-04T20:42:49.899Z,7.30
2018-09-04T20:46:53.603Z,7.23
2018-09-04T20:50:57.327Z,6.30
2018-09-04T20:55:00.947Z,6.30
2018-09-04T20:59:15.787Z,6.57
2018-09-04T21:03:30.687Z,6.30
2018-09-04T21:08:48.849Z,7.40
2018-09-04T21:12:52.502Z,6.73
2018-09-04T21:16:56.258Z,6.33
2018-09-04T21:20:59.880Z,6.77
2018-09-04T21:25:03.584Z,7.37
2018-09-04T21:29:07.328Z,7.00
2018-09-04T21:33:11.047Z,7.97
2018-09-04T21:37:14.696Z,7.27
2018-09-04T21:41:25.023Z,7.20
2018-09-04T21:45:28.655Z,7.00
2018-09-04T21:49:32.324Z,6.80
2018-09-04T21:53:36.049Z,7.03
2018-09-04T21:57:39.724Z,6.70
2018-09-04T22:01:43.407Z,6.80
2018-09-04T22:05:47.088Z,7.23
2018-09-04T22:09:50.746Z,6.93
2018-09-04T22:13:54.464Z,6.30
2018-09-04T22:17:58.129Z,6.37
2018-09-04T22:22:01.805Z,6.90
2018-09-04T22:26:05.836Z,6.47
2018-09-04T22:30:09.579Z,5.63
2018-09-04T22:34:13.232Z,5.50
2018-09-04T22:38:16.967Z,5.83
2018-09-04T22:42:20.645Z,5.30
2018-09-04T22:46:24.273Z,5.90
2018-09-04T22:50:33.185Z,4.87
2018-09-04T22:54:36.839Z,5.40
2018-09-04T22:58:40.508Z,4.77
2018-09-04T23:02:44.256Z,4.73
2018-09-04T23:06:47.900Z,4.90
2018-09-04T23:10:51.580Z,5.07
2018-09-04T23:14:55.257Z,4.93
2018-09-04T23:18:58.906Z,4.60
2018-09-04T23:23:02.572Z,4.57
2018-09-04T23:27:06.908Z,4.60
2018-09-04T23:31:10.596Z,4.30
2018-09-04T23:35:14.264Z,4.30
2018-09-04T23:39:17.911Z,5.00
2018-09-04T23:43:21.652Z,3.83
2018-09-04T23:47:25.276Z,4.80
2018-09-04T23:51:28.917Z,4.87
2018-09-04T23:55:32.584Z,4.40
2018-09-04T23:59:36.251Z,4.07
